createdAt,value
2022-11-26T00:01:39.821Z,8.30
2022-11-26T00:04:06.773Z,8.30
2022-11-26T00:06:33.574Z,8.40
2022-11-26T00:09:01.113Z,8.40
2022-11-26T00:11:27.915Z,8.40
2022-11-26T00:13:54.832Z,8.40
2022-11-26T00:16:21.789Z,8.40
2022-11-26T00:18:48.662Z,8.40
2022-11-26T00:21:21.568Z,8.40
2022-11-26T00:23:48.483Z,8.40
2022-11-26T00:26:20.027Z,8.50
2022-11-26T00:28:55.277Z,8.50
2022-11-26T00:31:23.157Z,8.50
2022-11-26T00:33:50.445Z,8.50
2022-11-26T00:36:22.720Z,8.50
2022-11-26T00:38:52.961Z,8.50
2022-11-26T00:41:24.818Z,8.50
2022-11-26T00:43:51.672Z,8.60
2022-11-26T00:46:22.025Z,8.60
2022-11-26T00:48:49.003Z,8.60
2022-11-26T00:51:17.941Z,8.50
2022-11-26T00:53:45.180Z,8.60
2022-11-26T00:56:16.385Z,8.60
2022-11-26T00:58:43.399Z,8.60
2022-11-26T01:01:14.981Z,8.60
2022-11-26T01:03:43.156Z,8.50
2022-11-26T01:06:18.678Z,8.60
2022-11-26T01:08:46.015Z,8.60
2022-11-26T01:11:14.649Z,8.60
2022-11-26T01:13:42.614Z,8.60
2022-11-26T01:16:23.332Z,8.60
2022-11-26T01:18:51.280Z,8.60
2022-11-26T01:21:18.697Z,8.60
2022-11-26T01:23:45.551Z,8.60
2022-11-26T01:26:19.605Z,8.60
2022-11-26T01:28:46.899Z,8.60
2022-11-26T01:31:21.301Z,8.60
2022-11-26T01:33:48.478Z,8.60
2022-11-26T01:36:30.671Z,8.60
2022-11-26T01:39:05.371Z,8.60
2022-11-26T01:41:32.182Z,8.50
2022-11-26T01:44:00.000Z,8.50
2022-11-26T01:46:29.816Z,8.60
2022-11-26T01:49:14.936Z,8.60
2022-11-26T01:51:41.763Z,8.60
2022-11-26T01:54:09.607Z,8.60
2022-11-26T01:56:39.065Z,8.60
2022-11-26T01:59:15.177Z,8.60
2022-11-26T02:01:42.220Z,8.60
2022-11-26T02:04:15.317Z,8.60
2022-11-26T02:06:44.036Z,8.70
2022-11-26T02:09:11.386Z,8.70
2022-11-26T02:11:38.945Z,8.70
2022-11-26T02:14:26.070Z,8.60
2022-11-26T02:17:06.136Z,8.60
2022-11-26T02:19:45.314Z,8.60
2022-11-26T02:22:18.017Z,8.60
2022-11-26T02:24:44.950Z,8.60
2022-11-26T02:27:30.281Z,8.60
2022-11-26T02:30:04.941Z,8.70
2022-11-26T02:32:42.312Z,8.60
2022-11-26T02:35:22.616Z,8.60
2022-11-26T02:37:55.164Z,8.60
2022-11-26T02:40:22.632Z,8.60
2022-11-26T02:42:49.573Z,8.60
2022-11-26T02:45:19.143Z,8.60
2022-11-26T02:47:47.647Z,8.60
2022-11-26T02:50:20.259Z,8.60
2022-11-26T02:52:48.704Z,8.60
2022-11-26T02:55:18.871Z,8.60
2022-11-26T02:57:48.217Z,8.50
2022-11-26T03:00:16.536Z,8.60
2022-11-26T03:02:48.495Z,8.50
2022-11-26T03:05:16.987Z,8.50
2022-11-26T03:07:45.876Z,8.50
2022-11-26T03:10:13.672Z,8.50
2022-11-26T03:12:40.488Z,8.50
2022-11-26T03:15:07.794Z,8.50
2022-11-26T03:17:34.599Z,8.50
2022-11-26T03:20:01.695Z,8.50
2022-11-26T03:22:29.090Z,8.40
2022-11-26T03:24:55.933Z,8.50
2022-11-26T03:27:22.726Z,8.40
2022-11-26T03:29:49.585Z,8.40
2022-11-26T03:32:16.373Z,8.40
2022-11-26T03:34:43.360Z,8.50
2022-11-26T03:37:10.182Z,8.40
2022-11-26T03:39:36.956Z,8.40
2022-11-26T03:42:03.877Z,8.40
2022-11-26T03:44:30.790Z,8.40
2022-11-26T03:46:57.606Z,8.40
2022-11-26T03:49:24.456Z,8.40
2022-11-26T03:51:51.271Z,8.40
2022-11-26T03:54:18.093Z,8.40
2022-11-26T03:56:44.916Z,8.40
2022-11-26T03:59:11.739Z,8.50
2022-11-26T04:01:38.738Z,8.40
2022-11-26T04:04:05.582Z,8.40
2022-11-26T04:06:32.481Z,8.40
2022-11-26T04:08:59.302Z,8.40
2022-11-26T04:11:26.085Z,8.50
2022-11-26T04:13:52.916Z,8.40
2022-11-26T04:16:20.861Z,8.40
2022-11-26T04:18:48.100Z,8.40
2022-11-26T04:21:14.991Z,8.50
2022-11-26T04:23:41.820Z,8.40
2022-11-26T04:26:08.653Z,8.50
2022-11-26T04:28:35.491Z,8.40
2022-11-26T04:31:02.326Z,8.50
2022-11-26T04:33:29.209Z,8.50
2022-11-26T04:35:56.046Z,8.50
2022-11-26T04:38:25.907Z,8.50
2022-11-26T04:40:53.062Z,8.50
2022-11-26T04:43:20.011Z,8.50
2022-11-26T04:45:46.919Z,8.50
2022-11-26T04:48:13.818Z,8.40
2022-11-26T04:50:40.665Z,8.40
2022-11-26T04:53:07.548Z,8.40
2022-11-26T04:55:34.409Z,8.40
2022-11-26T04:58:01.248Z,8.40
2022-11-26T05:00:28.373Z,8.40
2022-11-26T05:02:55.378Z,8.40
2022-11-26T05:05:22.358Z,8.40
2022-11-26T05:07:49.272Z,8.40
2022-11-26T05:10:16.151Z,8.40
2022-11-26T05:12:43.076Z,8.40
2022-11-26T05:15:10.112Z,8.30
2022-11-26T05:17:36.957Z,8.30
2022-11-26T05:20:04.729Z,8.30
2022-11-26T05:22:31.531Z,8.30
2022-11-26T05:24:58.372Z,8.30
2022-11-26T05:27:25.203Z,8.30
2022-11-26T05:29:52.055Z,8.30
2022-11-26T05:32:18.898Z,8.30
2022-11-26T05:34:45.805Z,8.30
2022-11-26T05:37:12.672Z,8.20
2022-11-26T05:39:39.458Z,8.20
2022-11-26T05:42:09.365Z,8.30
2022-11-26T05:44:37.445Z,8.20
2022-11-26T05:47:04.714Z,8.20
2022-11-26T05:49:31.607Z,8.20
2022-11-26T05:51:59.300Z,8.20
2022-11-26T05:54:26.134Z,8.20
2022-11-26T05:56:57.016Z,8.20
2022-11-26T05:59:27.328Z,8.20
2022-11-26T06:01:54.239Z,8.20
2022-11-26T06:04:21.112Z,8.20
2022-11-26T06:06:50.369Z,8.20
2022-11-26T06:09:17.250Z,8.20
2022-11-26T06:11:44.139Z,8.20
2022-11-26T06:14:11.133Z,8.20
2022-11-26T06:16:38.040Z,8.20
2022-11-26T06:19:04.883Z,8.20
2022-11-26T06:21:31.709Z,8.30
2022-11-26T06:23:59.719Z,8.30
2022-11-26T06:26:26.921Z,8.30
2022-11-26T06:28:53.749Z,8.30
2022-11-26T06:31:20.617Z,8.30
2022-11-26T06:33:47.625Z,8.30
2022-11-26T06:36:14.437Z,8.30
2022-11-26T06:38:41.774Z,8.30
2022-11-26T06:41:08.648Z,8.40
2022-11-26T06:43:35.719Z,8.40
2022-11-26T06:46:03.722Z,8.40
2022-11-26T06:48:30.653Z,8.40
2022-11-26T06:50:57.517Z,8.40
2022-11-26T06:53:24.331Z,8.40
2022-11-26T06:55:51.163Z,8.40
2022-11-26T06:58:18.009Z,8.40
2022-11-26T07:00:44.813Z,8.40
2022-11-26T07:03:11.751Z,8.40
2022-11-26T07:05:38.656Z,8.40
2022-11-26T07:08:05.500Z,8.40
2022-11-26T07:10:32.759Z,8.40
2022-11-26T07:13:00.338Z,8.40
2022-11-26T07:15:27.255Z,8.40
2022-11-26T07:17:54.149Z,8.40
2022-11-26T07:20:21.114Z,8.40
2022-11-26T07:22:48.008Z,8.40
2022-11-26T07:25:14.929Z,8.40
2022-11-26T07:27:41.813Z,8.40
2022-11-26T07:30:09.194Z,8.40
2022-11-26T07:32:36.066Z,8.40
2022-11-26T07:35:04.071Z,8.40
2022-11-26T07:37:32.637Z,8.40
2022-11-26T07:39:59.471Z,8.30
2022-11-26T07:42:26.324Z,8.30
2022-11-26T07:44:53.174Z,8.30
2022-11-26T07:47:20.027Z,8.30
2022-11-26T07:49:49.225Z,8.30
2022-11-26T07:52:16.063Z,8.30
2022-11-26T07:54:43.152Z,8.30
2022-11-26T07:57:10.548Z,8.20
2022-11-26T07:59:37.363Z,8.20
2022-11-26T08:02:04.339Z,8.20
2022-11-26T08:04:31.188Z,8.20
2022-11-26T08:06:58.009Z,8.30
2022-11-26T08:09:24.867Z,8.20
2022-11-26T08:11:51.685Z,8.20
2022-11-26T08:14:18.537Z,8.20
2022-11-26T08:16:45.495Z,8.20
2022-11-26T08:19:13.174Z,8.20
2022-11-26T08:21:40.655Z,8.20
2022-11-26T08:24:08.361Z,8.20
2022-11-26T08:26:41.081Z,8.20
2022-11-26T08:29:10.517Z,8.20
2022-11-26T08:31:45.315Z,8.20
2022-11-26T08:34:15.069Z,8.20
2022-11-26T08:36:41.942Z,8.20
2022-11-26T08:39:09.896Z,8.20
2022-11-26T08:41:37.221Z,8.30
2022-11-26T08:44:07.215Z,8.20
2022-11-26T08:46:38.830Z,8.20
2022-11-26T08:49:06.246Z,8.20
2022-11-26T08:51:33.256Z,8.30
2022-11-26T08:54:02.236Z,8.20
2022-11-26T08:56:29.141Z,8.20
2022-11-26T08:58:56.005Z,8.20
2022-11-26T09:01:27.486Z,8.20
2022-11-26T09:03:55.555Z,8.20
2022-11-26T09:06:23.727Z,8.20
2022-11-26T09:09:09.267Z,8.20
2022-11-26T09:11:38.169Z,8.30
2022-11-26T09:14:08.256Z,8.30
2022-11-26T09:16:35.346Z,8.30
2022-11-26T09:19:03.251Z,8.30
2022-11-26T09:21:30.179Z,8.30
2022-11-26T09:23:56.994Z,8.30
2022-11-26T09:26:25.302Z,8.30
2022-11-26T09:28:52.246Z,8.30
2022-11-26T09:31:19.504Z,8.30
2022-11-26T09:33:46.768Z,8.30
2022-11-26T09:36:14.483Z,8.40
2022-11-26T09:38:41.386Z,8.30
2022-11-26T09:41:34.234Z,8.30
2022-11-26T09:44:22.487Z,8.40
2022-11-26T09:47:10.484Z,8.30
2022-11-26T09:49:51.470Z,8.40
2022-11-26T09:52:19.308Z,8.40
2022-11-26T09:54:47.725Z,8.40
2022-11-26T09:57:14.567Z,8.40
2022-11-26T09:59:41.926Z,8.40
2022-11-26T10:02:11.117Z,8.50
2022-11-26T10:04:39.600Z,8.50
2022-11-26T10:07:25.977Z,8.50
2022-11-26T10:10:00.712Z,8.50
2022-11-26T10:13:16.750Z,8.50
2022-11-26T10:15:46.019Z,8.60
2022-11-26T10:18:15.886Z,8.60
2022-11-26T10:20:42.748Z,8.60
2022-11-26T10:23:12.643Z,8.60
2022-11-26T10:25:42.564Z,8.60
2022-11-26T10:28:16.925Z,8.70
2022-11-26T10:30:44.404Z,8.70
2022-11-26T10:33:13.246Z,8.70
2022-11-26T10:35:41.764Z,8.80
2022-11-26T10:38:09.807Z,8.80
2022-11-26T10:40:36.656Z,8.80
2022-11-26T10:43:08.469Z,8.80
2022-11-26T10:45:55.863Z,8.90
2022-11-26T10:48:22.717Z,8.90
2022-11-26T10:50:57.250Z,8.90
2022-11-26T10:53:25.269Z,8.90
2022-11-26T10:55:55.341Z,9.00
2022-11-26T10:58:24.904Z,9.00
2022-11-26T11:00:51.896Z,9.00
2022-11-26T11:03:38.512Z,9.00
2022-11-26T11:06:11.759Z,9.10
2022-11-26T11:08:38.707Z,9.10
2022-11-26T11:11:05.585Z,9.10
2022-11-26T11:13:39.964Z,9.10
2022-11-26T11:16:06.956Z,9.10
2022-11-26T11:18:35.362Z,9.20
2022-11-26T11:21:03.483Z,9.20
2022-11-26T11:24:07.055Z,9.20
2022-11-26T11:26:25.403Z,9.20
2022-11-26T11:28:55.696Z,9.20
2022-11-26T11:31:23.615Z,9.30
2022-11-26T11:33:51.077Z,9.30
2022-11-26T11:36:20.222Z,9.30
2022-11-26T11:38:47.696Z,9.30
2022-11-26T11:41:21.669Z,9.30
2022-11-26T11:43:48.648Z,9.40
2022-11-26T11:46:18.591Z,9.40
2022-11-26T11:49:03.986Z,9.40
2022-11-26T11:51:40.106Z,9.40
2022-11-26T11:54:33.348Z,9.40
2022-11-26T11:57:00.156Z,9.40
2022-11-26T11:59:58.421Z,9.40
2022-11-26T12:02:37.786Z,9.50
2022-11-26T12:05:06.519Z,9.50
2022-11-26T12:07:47.868Z,9.50
2022-11-26T12:10:21.884Z,9.50
2022-11-26T12:12:52.889Z,9.50
2022-11-26T12:15:19.974Z,9.60
2022-11-26T12:17:53.602Z,9.60
2022-11-26T12:20:23.497Z,9.50
2022-11-26T12:23:24.398Z,9.60
2022-11-26T12:25:53.482Z,9.60
2022-11-26T12:28:29.152Z,9.60
2022-11-26T12:31:01.578Z,9.60
2022-11-26T12:33:34.202Z,9.60
2022-11-26T12:36:21.394Z,9.70
2022-11-26T12:38:53.506Z,9.70
2022-11-26T12:41:25.491Z,9.60
2022-11-26T12:44:03.415Z,9.70
2022-11-26T12:46:33.437Z,9.70
2022-11-26T12:49:07.875Z,9.70
2022-11-26T12:51:34.783Z,9.70
2022-11-26T12:54:11.292Z,9.70
2022-11-26T12:56:45.365Z,9.70
2022-11-26T12:59:19.838Z,9.70
2022-11-26T13:01:46.806Z,9.70
2022-11-26T13:04:36.833Z,9.70
2022-11-26T13:07:09.813Z,9.70
2022-11-26T13:09:59.284Z,9.80
2022-11-26T13:12:32.198Z,9.80
2022-11-26T13:15:08.452Z,9.80
2022-11-26T13:17:41.729Z,9.80
2022-11-26T13:20:08.636Z,9.80
2022-11-26T13:22:38.515Z,9.80
2022-11-26T13:25:05.434Z,9.80
2022-11-26T13:27:38.321Z,9.90
2022-11-26T13:30:05.734Z,9.90
2022-11-26T13:32:32.587Z,9.90
2022-11-26T13:34:59.383Z,9.90
2022-11-26T13:37:32.000Z,9.90
2022-11-26T13:40:17.719Z,9.90
2022-11-26T13:43:03.195Z,9.90
2022-11-26T13:45:34.117Z,9.90
2022-11-26T13:48:27.299Z,10.00
2022-11-26T13:50:59.687Z,10.00
2022-11-26T13:53:32.669Z,10.00
2022-11-26T13:56:04.432Z,10.00
2022-11-26T13:58:35.254Z,10.00
2022-11-26T14:01:20.883Z,10.00
2022-11-26T14:03:48.901Z,10.00
2022-11-26T14:06:15.876Z,10.00
2022-11-26T14:08:45.110Z,10.10
2022-11-26T14:11:12.477Z,10.10
2022-11-26T14:13:39.482Z,10.10
2022-11-26T14:16:10.242Z,10.10
2022-11-26T14:18:49.604Z,10.20
2022-11-26T14:21:16.948Z,10.10
2022-11-26T14:23:44.707Z,10.20
2022-11-26T14:26:15.707Z,10.20
2022-11-26T14:28:42.760Z,10.20
2022-11-26T14:31:20.723Z,10.20
2022-11-26T14:33:48.575Z,10.20
2022-11-26T14:36:33.466Z,10.20
2022-11-26T14:39:18.641Z,10.20
2022-11-26T14:41:45.522Z,10.30
2022-11-26T14:44:13.732Z,10.30
2022-11-26T14:46:41.412Z,10.30
2022-11-26T14:49:16.458Z,10.30
2022-11-26T14:51:45.484Z,10.30
2022-11-26T14:54:16.050Z,10.30
2022-11-26T14:56:46.378Z,10.30
2022-11-26T14:59:16.907Z,10.30
2022-11-26T15:01:45.310Z,10.30
2022-11-26T15:04:24.592Z,10.30
2022-11-26T15:06:51.683Z,10.30
2022-11-26T15:09:25.493Z,10.40
2022-11-26T15:12:04.550Z,10.40
2022-11-26T15:14:31.434Z,10.40
2022-11-26T15:16:59.537Z,10.30
2022-11-26T15:19:27.092Z,10.30
2022-11-26T15:21:54.003Z,10.30
2022-11-26T15:24:21.177Z,10.30
2022-11-26T15:26:48.325Z,10.40
2022-11-26T15:29:30.840Z,10.30
2022-11-26T15:31:58.379Z,10.40
2022-11-26T15:34:25.925Z,10.40
2022-11-26T15:36:52.834Z,10.30
2022-11-26T15:41:45.332Z,10.30
2022-11-26T15:44:39.030Z,10.40
2022-11-26T15:47:18.814Z,10.30
2022-11-26T15:49:52.194Z,10.30
2022-11-26T15:52:26.472Z,10.30
2022-11-26T15:55:18.908Z,10.30
2022-11-26T15:57:51.890Z,10.30
2022-11-26T16:00:22.923Z,10.30
2022-11-26T16:02:52.225Z,10.30
2022-11-26T16:05:34.438Z,10.20
2022-11-26T16:08:23.669Z,10.30
2022-11-26T16:11:07.708Z,10.20
2022-11-26T16:13:36.322Z,10.20
2022-11-26T16:16:09.196Z,10.30
2022-11-26T16:18:44.293Z,10.20
2022-11-26T16:21:14.039Z,10.20
2022-11-26T16:23:41.614Z,10.30
2022-11-26T16:26:16.278Z,10.30
2022-11-26T16:28:45.196Z,10.30
2022-11-26T16:31:13.506Z,10.30
2022-11-26T16:33:40.796Z,10.30
2022-11-26T16:36:19.298Z,10.30
2022-11-26T16:38:47.203Z,10.30
2022-11-26T16:41:15.768Z,10.30
2022-11-26T16:43:42.787Z,10.30
2022-11-26T16:46:23.517Z,10.30
2022-11-26T16:48:50.872Z,10.30
2022-11-26T16:51:18.689Z,10.30
2022-11-26T16:53:45.860Z,10.30
2022-11-26T16:56:26.915Z,10.30
2022-11-26T16:58:54.874Z,10.30
2022-11-26T17:01:21.970Z,10.40
2022-11-26T17:03:49.173Z,10.40
2022-11-26T17:06:38.582Z,10.30
2022-11-26T17:09:05.582Z,10.40
2022-11-26T17:11:32.532Z,10.40
2022-11-26T17:13:59.808Z,10.40
2022-11-26T17:16:26.861Z,10.40
2022-11-26T17:18:53.952Z,10.40
2022-11-26T17:21:21.022Z,10.40
2022-11-26T17:23:47.953Z,10.40
2022-11-26T17:26:21.240Z,10.40
2022-11-26T17:28:49.523Z,10.40
2022-11-26T17:31:17.388Z,10.40
2022-11-26T17:33:44.497Z,10.40
2022-11-26T17:36:18.013Z,10.40
2022-11-26T17:38:46.065Z,10.40
2022-11-26T17:41:14.167Z,10.40
2022-11-26T17:43:41.684Z,10.40
2022-11-26T17:46:17.594Z,10.40
2022-11-26T17:48:44.657Z,10.40
2022-11-26T17:51:13.539Z,10.40
2022-11-26T17:53:41.609Z,10.40
2022-11-26T17:56:24.705Z,10.40
2022-11-26T17:58:51.836Z,10.30
2022-11-26T18:01:19.437Z,10.30
2022-11-26T18:03:47.488Z,10.30
2022-11-26T18:06:16.936Z,10.30
2022-11-26T18:08:44.794Z,10.30
2022-11-26T18:11:16.315Z,10.30
2022-11-26T18:13:43.510Z,10.30
2022-11-26T18:16:10.601Z,10.30
2022-11-26T18:18:37.615Z,10.30
2022-11-26T18:21:05.435Z,10.30
2022-11-26T18:23:32.843Z,10.30
2022-11-26T18:25:59.951Z,10.30
2022-11-26T18:28:27.113Z,10.30
2022-11-26T18:30:58.333Z,10.30
2022-11-26T18:33:25.507Z,10.30
2022-11-26T18:35:52.873Z,10.30
2022-11-26T18:38:20.018Z,10.30
2022-11-26T18:40:47.125Z,10.30
2022-11-26T18:43:14.243Z,10.40
2022-11-26T18:45:44.339Z,10.30
2022-11-26T18:48:11.475Z,10.40
2022-11-26T18:50:38.498Z,10.40
2022-11-26T18:53:05.595Z,10.40
2022-11-26T18:55:32.703Z,10.40
2022-11-26T18:58:02.870Z,10.40
2022-11-26T19:00:32.444Z,10.40
2022-11-26T19:03:01.623Z,10.40
2022-11-26T19:05:28.619Z,10.40
2022-11-26T19:07:55.589Z,10.40
2022-11-26T19:10:22.608Z,10.40
2022-11-26T19:12:49.668Z,10.40
2022-11-26T19:15:16.785Z,10.40
2022-11-26T19:17:43.767Z,10.50
2022-11-26T19:20:10.904Z,10.40
2022-11-26T19:22:37.961Z,10.50
2022-11-26T19:25:05.277Z,10.50
2022-11-26T19:27:32.452Z,10.50
2022-11-26T19:29:59.462Z,10.50
2022-11-26T19:32:26.881Z,10.50
2022-11-26T19:34:54.426Z,10.50
2022-11-26T19:37:21.505Z,10.50
2022-11-26T19:39:48.482Z,10.50
2022-11-26T19:42:15.751Z,10.50
2022-11-26T19:44:42.791Z,10.50
2022-11-26T19:47:10.098Z,10.60
2022-11-26T19:49:37.401Z,10.60
2022-11-26T19:52:04.912Z,10.50
2022-11-26T19:54:31.903Z,10.50
2022-11-26T19:56:58.933Z,10.60
2022-11-26T19:59:25.983Z,10.60
2022-11-26T20:01:55.699Z,10.60
2022-11-26T20:04:23.889Z,10.60
2022-11-26T20:06:50.856Z,10.60
2022-11-26T20:09:17.821Z,10.60
2022-11-26T20:11:45.825Z,10.60
2022-11-26T20:14:14.247Z,10.60
2022-11-26T20:16:43.327Z,10.60
2022-11-26T20:19:11.206Z,10.60
2022-11-26T20:21:38.963Z,10.60
2022-11-26T20:24:14.365Z,10.70
2022-11-26T20:26:42.922Z,10.60
2022-11-26T20:29:14.545Z,10.60
2022-11-26T20:31:47.712Z,10.70
2022-11-26T20:34:19.346Z,10.70
2022-11-26T20:36:46.606Z,10.70
2022-11-26T20:39:16.263Z,10.70
2022-11-26T20:41:43.875Z,10.70
2022-11-26T20:44:12.672Z,10.70
2022-11-26T20:46:40.319Z,10.70
2022-11-26T20:49:07.890Z,10.70
2022-11-26T20:51:34.917Z,10.70
2022-11-26T20:54:02.356Z,10.70
2022-11-26T20:56:29.567Z,10.70
2022-11-26T20:58:56.544Z,10.70
2022-11-26T21:01:28.590Z,10.70
2022-11-26T21:03:56.507Z,10.70
2022-11-26T21:06:29.757Z,10.80
2022-11-26T21:09:02.347Z,10.80
2022-11-26T21:11:30.311Z,10.70
2022-11-26T21:13:59.045Z,10.70
2022-11-26T21:16:26.363Z,10.70
2022-11-26T21:18:54.822Z,10.80
2022-11-26T21:21:22.921Z,10.70
2022-11-26T21:23:50.678Z,10.70
2022-11-26T21:26:19.908Z,10.70
2022-11-26T21:28:55.279Z,10.70
2022-11-26T21:31:23.368Z,10.70
2022-11-26T21:34:01.757Z,10.70
2022-11-26T21:36:30.864Z,10.70
2022-11-26T21:38:58.103Z,10.70
2022-11-26T21:41:25.686Z,10.80
2022-11-26T21:43:53.100Z,10.80
2022-11-26T21:46:23.503Z,10.80
2022-11-26T21:48:56.212Z,10.80
2022-11-26T21:51:27.024Z,10.80
2022-11-26T21:53:55.300Z,10.80
2022-11-26T21:56:27.686Z,10.80
2022-11-26T21:58:57.452Z,10.80
2022-11-26T22:01:30.268Z,10.80
2022-11-26T22:04:00.367Z,10.80
2022-11-26T22:06:27.975Z,10.80
2022-11-26T22:08:55.789Z,10.90
2022-11-26T22:11:25.958Z,10.80
2022-11-26T22:13:53.324Z,10.80
2022-11-26T22:16:24.124Z,10.90
2022-11-26T22:18:52.548Z,10.90
2022-11-26T22:21:32.547Z,10.90
2022-11-26T22:24:01.327Z,10.90
2022-11-26T22:26:29.735Z,10.90
2022-11-26T22:28:57.041Z,10.90
2022-11-26T22:31:27.072Z,10.90
2022-11-26T22:34:06.032Z,10.90
2022-11-26T22:36:33.463Z,10.90
2022-11-26T22:39:02.349Z,10.90
2022-11-26T22:41:29.350Z,10.90
2022-11-26T22:43:59.178Z,11.00
2022-11-26T22:46:26.570Z,11.00
2022-11-26T22:48:59.160Z,11.00
2022-11-26T22:51:28.009Z,11.00
2022-11-26T22:53:59.664Z,11.00
2022-11-26T22:56:27.879Z,11.00
2022-11-26T22:58:55.312Z,11.00
2022-11-26T23:01:31.009Z,11.00
2022-11-26T23:03:59.646Z,11.00
2022-11-26T23:06:28.938Z,11.10
2022-11-26T23:08:57.478Z,11.00
2022-11-26T23:11:28.553Z,11.00
2022-11-26T23:13:56.238Z,11.00
2022-11-26T23:16:26.169Z,11.00
2022-11-26T23:18:57.444Z,11.00
2022-11-26T23:21:27.322Z,11.00
2022-11-26T23:23:54.680Z,11.00
2022-11-26T23:26:28.270Z,10.90
2022-11-26T23:28:56.799Z,10.90
2022-11-26T23:31:25.525Z,10.90
2022-11-26T23:33:53.322Z,10.90
2022-11-26T23:36:21.284Z,10.90
2022-11-26T23:38:48.554Z,10.90
2022-11-26T23:41:15.809Z,10.80
2022-11-26T23:43:42.913Z,10.80
2022-11-26T23:46:25.103Z,10.80
2022-11-26T23:48:52.705Z,10.80
2022-11-26T23:51:25.314Z,10.80
2022-11-26T23:53:52.954Z,10.80
2022-11-26T23:56:23.757Z,10.80
2022-11-26T23:58:52.616Z,10.80
